Time;durP1;ratioP1;P1;durP2;ratioP2;P2;SDS_P1;SDS_P2;PMS_P1;PMS_P2;Temp;Humidity;BMP_temperature;BMP_pressure;BME280_temperature;BME280_humidity;BME280_pressure;Samples;Min_cycle;Max_cycle;Signal;HPM_P1;HPM_P2
2022/09/02 00:01:36;;;;;;;5.80;5.13;;;19.40;99.10;;;20.44;59.04;100675.41;5012560;28;20614;-69
2022/09/02 00:04:12;;;;;;;4.70;4.17;;;19.40;99.30;;;20.55;58.65;100682.13;5012023;28;20649;-69
2022/09/02 00:06:41;;;;;;;6.60;4.67;;;19.40;99.30;;;20.43;59.13;100678.19;5011958;28;20620;-69
2022/09/02 00:09:12;;;;;;;4.67;4.27;;;19.40;99.40;;;20.43;59.03;100676.38;5011679;28;20664;-70
2022/09/02 00:11:41;;;;;;;10.93;4.07;;;19.30;99.40;;;20.37;58.85;100674.44;5010870;28;21502;-69
2022/09/02 00:14:15;;;;;;;3.50;3.20;;;19.30;99.40;;;20.35;58.66;100671.13;5011162;28;20704;-69
2022/09/02 00:16:43;;;;;;;4.43;3.90;;;19.30;99.40;;;20.26;59.16;100666.00;5012672;28;20653;-68
2022/09/02 00:19:10;;;;;;;5.80;4.83;;;19.30;99.60;;;20.24;58.82;100660.06;5011623;28;21077;-69
2022/09/02 00:21:37;;;;;;;3.70;3.50;;;19.20;99.70;;;20.33;58.83;100664.34;5010666;28;20634;-67
2022/09/02 00:24:05;;;;;;;4.33;3.93;;;19.20;99.60;;;20.25;59.13;100659.91;5012661;28;20632;-68
2022/09/02 00:26:32;;;;;;;4.43;4.03;;;19.20;99.80;;;20.24;58.86;100658.25;5012498;28;20653;-69
2022/09/02 00:28:59;;;;;;;3.70;3.40;;;19.20;99.70;;;20.36;58.75;100656.06;5025847;28;21274;-68
2022/09/02 00:31:27;;;;;;;5.60;4.20;;;19.20;99.50;;;20.37;58.57;100660.34;5027403;28;20620;-68
2022/09/02 00:33:55;;;;;;;5.70;4.10;;;19.20;99.60;;;20.36;58.28;100656.84;5002334;28;20745;-69
2022/09/02 00:36:22;;;;;;;4.33;3.93;;;19.30;99.50;;;20.25;58.68;100659.06;5010872;28;20676;-68
2022/09/02 00:38:50;;;;;;;4.10;3.80;;;19.30;99.60;;;20.24;58.38;100654.75;5005764;28;20630;-68
2022/09/02 00:41:23;;;;;;;6.27;3.60;;;19.20;99.60;;;20.26;58.42;100650.13;5011347;28;21219;-68
2022/09/02 00:43:59;;;;;;;5.30;3.83;;;19.20;99.40;;;20.22;58.39;100654.09;5009796;28;21205;-68
2022/09/02 00:46:28;;;;;;;4.50;4.10;;;19.20;99.60;;;20.22;58.49;100649.66;5011167;28;21099;-68
2022/09/02 00:49:27;;;;;;;3.80;3.50;;;19.20;99.70;;;20.26;58.34;100644.81;5011712;28;20721;-68
2022/09/02 00:52:20;;;;;;;3.33;3.07;;;19.20;99.80;;;20.27;57.99;100649.13;5012759;28;20633;-68
2022/09/02 00:55:07;;;;;;;4.77;4.33;;;19.20;99.60;;;20.16;58.69;100647.66;5011025;28;20642;-69
2022/09/02 00:57:44;;;;;;;6.27;4.10;;;19.10;99.80;;;20.14;58.58;100642.50;5010637;28;20716;-69
2022/09/02 01:00:23;;;;;;;4.27;3.87;;;19.10;99.90;;;20.10;58.87;100641.19;5011339;28;20980;-69
2022/09/02 01:03:02;;;;;;;4.80;4.40;;;19.10;99.90;;;20.02;59.13;100643.88;5009481;28;21007;-69
2022/09/02 01:05:36;;;;;;;4.80;4.40;;;19.00;99.90;;;20.07;58.86;100640.72;5010042;28;20609;-67
2022/09/02 01:08:12;;;;;;;4.20;3.90;;;19.00;99.90;;;19.96;59.09;100644.56;5009823;28;20741;-68
2022/09/02 01:10:39;;;;;;;4.50;4.10;;;19.00;99.90;;;19.95;59.44;100642.91;5009613;28;20679;-68
2022/09/02 01:13:14;;;;;;;4.77;4.37;;;18.90;99.90;;;19.92;59.17;100642.44;5009618;28;20745;-68
2022/09/02 01:15:48;;;;;;;4.57;4.17;;;18.90;99.90;;;19.96;59.18;100649.88;5010035;28;20617;-68
2022/09/02 01:18:24;;;;;;;4.70;4.30;;;18.90;99.90;;;19.93;59.36;100647.53;5011398;28;20633;-68
2022/09/02 01:20:52;;;;;;;7.90;4.50;;;18.80;99.90;;;19.80;59.55;100641.16;5008338;28;20755;-68
2022/09/02 01:23:19;;;;;;;4.53;4.13;;;18.80;99.90;;;19.71;60.14;100648.28;5003776;28;20614;-69
2022/09/02 01:25:47;;;;;;;4.53;4.13;;;18.70;99.90;;;19.65;60.20;100641.00;4990902;28;20619;-69
2022/09/02 01:28:17;;;;;;;4.37;4.07;;;18.70;99.90;;;19.80;59.81;100643.78;5008919;28;20633;-69
2022/09/02 01:30:50;;;;;;;4.97;4.47;;;18.70;99.90;;;19.72;60.04;100638.53;5010202;28;20645;-67
2022/09/02 01:33:20;;;;;;;7.00;5.07;;;18.70;99.90;;;19.76;60.58;100643.28;5009199;28;20656;-69
2022/09/02 01:35:49;;;;;;;5.77;4.60;;;18.70;99.90;;;19.69;60.80;100642.31;5009565;28;20614;-67
2022/09/02 01:38:17;;;;;;;6.20;5.47;;;18.70;99.90;;;19.72;61.00;100646.47;5009335;28;20624;-69
2022/09/02 01:40:44;;;;;;;9.43;6.63;;;18.60;99.90;;;19.63;61.37;100642.16;5001631;28;20673;-69
2022/09/02 01:43:20;;;;;;;6.23;5.43;;;18.60;99.90;;;19.58;61.61;100645.31;5005276;28;20740;-70
2022/09/02 01:45:50;;;;;;;8.70;6.43;;;18.60;99.90;;;19.66;61.33;100645.28;5017972;28;21117;-67
2022/09/02 01:48:18;;;;;;;8.07;6.10;;;18.60;99.90;;;19.65;61.17;100641.00;5010021;28;21001;-69
2022/09/02 01:51:00;;;;;;;7.40;5.87;;;18.60;99.90;;;19.57;61.19;100646.28;5009526;28;20649;-68
2022/09/02 01:53:28;;;;;;;5.67;5.07;;;18.50;99.90;;;19.59;61.23;100636.38;5003289;28;20714;-68
2022/09/02 01:55:55;;;;;;;7.30;5.13;;;18.50;99.90;;;19.56;60.97;100634.06;5006972;28;20621;-69
2022/09/02 01:58:22;;;;;;;5.63;5.10;;;18.50;99.90;;;19.32;61.78;100639.34;5024500;28;20636;-69
2022/09/02 02:00:49;;;;;;;5.50;5.00;;;18.40;99.90;;;19.46;61.54;100629.94;5008908;28;20732;-69
2022/09/02 02:03:17;;;;;;;5.87;4.83;;;18.40;99.90;;;19.51;61.47;100638.19;5010687;28;20640;-68
2022/09/02 02:05:44;;;;;;;8.00;5.50;;;18.40;99.90;;;19.54;61.49;100646.66;5010732;28;20606;-67
2022/09/02 02:08:11;;;;;;;8.30;6.27;;;18.40;99.90;;;19.43;61.91;100646.16;5007364;28;20646;-68
2022/09/02 02:10:41;;;;;;;5.90;5.30;;;18.40;99.90;;;19.38;61.77;100633.41;5007366;28;20660;-68
2022/09/02 02:13:08;;;;;;;6.60;5.40;;;18.40;99.90;;;19.46;61.66;100630.78;5009526;28;21219;-69
2022/09/02 02:15:39;;;;;;;5.73;5.20;;;18.40;99.90;;;19.45;61.63;100637.06;5005609;28;20633;-68
2022/09/02 02:18:07;;;;;;;6.57;5.67;;;18.40;99.90;;;19.43;61.59;100639.03;5003721;28;20661;-69
2022/09/02 02:20:36;;;;;;;6.90;5.50;;;18.30;99.90;;;19.33;61.96;100630.44;5009589;28;20654;-69
2022/09/02 02:23:05;;;;;;;8.20;6.77;;;18.30;99.90;;;19.40;61.84;100628.78;5008286;28;20634;-69
2022/09/02 02:25:33;;;;;;;9.07;6.83;;;18.30;99.90;;;19.49;61.95;100633.06;5006254;28;20645;-68
2022/09/02 02:27:59;;;;;;;6.80;6.10;;;18.30;99.90;;;19.30;62.37;100628.94;5007836;28;20640;-68
2022/09/02 02:30:28;;;;;;;8.30;6.20;;;18.30;99.90;;;19.25;62.67;100638.38;5011379;28;20696;-68
2022/09/02 02:32:55;;;;;;;7.20;6.00;;;18.30;99.90;;;19.29;62.99;100634.41;5008484;28;20704;-68
2022/09/02 02:35:22;;;;;;;8.07;6.30;;;18.20;99.90;;;19.13;63.44;100639.69;5009477;28;20645;-69
2022/09/02 02:37:50;;;;;;;9.10;7.07;;;18.10;99.90;;;19.13;63.34;100635.22;5001252;28;21220;-69
2022/09/02 02:40:21;;;;;;;7.00;5.90;;;18.10;99.90;;;19.03;63.97;100633.72;5008743;28;21224;-68
2022/09/02 02:42:52;;;;;;;6.53;5.23;;;18.10;99.90;;;19.04;63.79;100630.91;5009176;28;21045;-67
2022/09/02 02:45:19;;;;;;;5.97;5.37;;;18.00;99.90;;;19.08;63.32;100624.31;5010053;28;20653;-68
2022/09/02 02:47:46;;;;;;;6.20;5.60;;;18.00;99.90;;;19.09;62.81;100630.41;5008712;28;20637;-68
2022/09/02 02:50:17;;;;;;;8.03;5.67;;;18.00;99.90;;;18.99;63.25;100632.41;5008837;28;20653;-67
2022/09/02 02:52:45;;;;;;;6.37;5.00;;;18.00;99.90;;;19.03;62.61;100633.72;5009659;28;20638;-68
2022/09/02 02:55:14;;;;;;;5.10;4.70;;;18.00;99.90;;;19.12;61.99;100632.75;5008717;28;20621;-67
2022/09/02 02:57:42;;;;;;;5.47;4.97;;;18.00;99.90;;;19.05;61.75;100629.09;5009299;28;20760;-68
2022/09/02 03:00:12;;;;;;;6.10;5.50;;;17.90;99.90;;;19.04;62.08;100636.19;5008995;28;20647;-65
2022/09/02 03:02:40;;;;;;;6.40;5.40;;;18.00;99.90;;;19.06;62.42;100631.56;5004262;28;20710;-68
2022/09/02 03:05:08;;;;;;;5.63;5.00;;;18.00;99.90;;;18.90;62.82;100634.22;4990487;28;20615;-68
2022/09/02 03:07:35;;;;;;;11.70;5.67;;;17.90;99.90;;;18.98;63.56;100626.28;5004649;28;20638;-68
2022/09/02 03:10:07;;;;;;;6.30;5.17;;;17.90;99.90;;;18.92;64.24;100624.31;5012774;28;20636;-68
2022/09/02 03:12:35;;;;;;;5.10;4.63;;;17.80;99.90;;;18.86;64.42;100629.41;5012399;28;20638;-68
2022/09/02 03:15:03;;;;;;;6.80;5.23;;;17.80;99.90;;;18.85;64.53;100627.75;5013248;28;20629;-68
2022/09/02 03:17:30;;;;;;;5.47;4.67;;;17.70;99.90;;;18.83;65.08;100624.44;5011254;28;20668;-68
2022/09/02 03:19:58;;;;;;;6.70;4.40;;;17.70;99.90;;;18.66;65.74;100628.03;5013853;28;20646;-68
2022/09/02 03:22:26;;;;;;;5.03;4.30;;;17.60;99.90;;;18.51;66.43;100628.69;5012234;28;20780;-68
2022/09/02 03:24:53;;;;;;;4.33;3.93;;;17.50;99.90;;;18.25;67.38;100632.38;5013033;28;21446;-68
2022/09/02 03:27:21;;;;;;;5.57;5.07;;;17.40;99.90;;;18.23;68.03;100624.59;5011973;28;20729;-68
2022/09/02 03:29:48;;;;;;;7.17;5.50;;;17.30;99.90;;;18.22;67.63;100630.88;5011992;28;20631;-68
2022/09/02 03:32:17;;;;;;;5.20;4.30;;;17.20;99.90;;;18.21;67.70;100631.84;5013036;28;20645;-69
2022/09/02 03:34:45;;;;;;;5.90;5.37;;;17.20;99.90;;;18.10;68.19;100626.03;5013651;28;21221;-69
2022/09/02 03:37:12;;;;;;;8.33;5.77;;;17.10;99.90;;;18.18;67.75;100631.34;5012199;28;20719;-68
2022/09/02 03:39:39;;;;;;;6.93;4.60;;;17.10;99.90;;;18.08;68.01;100626.19;5012396;28;21247;-68
2022/09/02 03:42:07;;;;;;;5.03;4.53;;;17.10;99.90;;;18.05;67.84;100628.31;5012495;28;20641;-68
2022/09/02 03:44:46;;;;;;;5.13;4.40;;;17.00;99.90;;;18.00;67.58;100626.16;5013284;28;20991;-69
2022/09/02 03:47:16;;;;;;;4.47;4.07;;;17.00;99.90;;;17.87;68.08;100622.31;5010853;28;20652;-68
2022/09/02 03:49:46;;;;;;;5.27;4.53;;;16.90;99.90;;;17.88;68.02;100632.69;5011215;28;20658;-69
2022/09/02 03:52:13;;;;;;;10.17;4.87;;;16.80;99.90;;;17.73;68.18;100628.97;5011136;28;20605;-69
2022/09/02 03:54:43;;;;;;;5.30;4.80;;;16.80;99.90;;;17.70;67.87;100626.63;5011400;28;20580;-68
2022/09/02 03:57:11;;;;;;;5.63;4.83;;;16.70;99.90;;;17.76;67.74;100632.13;5011941;28;20622;-69
2022/09/02 03:59:40;;;;;;;5.80;5.10;;;16.70;99.90;;;17.59;68.59;100619.00;5011221;28;20641;-70
2022/09/02 04:02:07;;;;;;;5.80;5.00;;;16.60;99.90;;;17.69;68.02;100625.00;5012063;28;20630;-69
2022/09/02 04:04:40;;;;;;;4.97;4.30;;;16.60;99.90;;;17.78;67.31;100624.88;5012342;28;20629;-68
2022/09/02 04:07:07;;;;;;;4.87;4.37;;;16.70;99.90;;;17.64;67.62;100625.47;5010511;28;20641;-69
2022/09/02 04:09:34;;;;;;;4.67;4.27;;;16.60;99.90;;;17.46;68.80;100621.19;5011856;28;20672;-69
2022/09/02 04:12:03;;;;;;;3.63;3.30;;;16.50;99.90;;;17.43;68.25;100624.13;5011486;28;21240;-69
2022/09/02 04:14:30;;;;;;;5.03;4.10;;;16.50;99.90;;;17.47;67.44;100625.47;5013137;28;21129;-69
2022/09/02 04:21:18;;;;;;;4.53;4.13;;;16.40;99.90;;;17.42;67.71;100619.84;5011772;28;20669;-69
2022/09/02 04:23:46;;;;;;;5.33;4.50;;;16.40;99.90;;;17.37;68.49;100625.59;5007062;28;20640;-68
2022/09/02 04:26:16;;;;;;;6.03;5.10;;;16.40;99.90;;;17.53;67.67;100630.16;5009018;28;20633;-68
2022/09/02 04:28:43;;;;;;;6.90;5.67;;;16.50;99.90;;;17.61;67.38;100624.97;5007406;28;20982;-69
2022/09/02 04:31:13;;;;;;;6.40;4.47;;;16.60;99.90;;;17.73;66.54;100631.63;5010173;28;20648;-68
2022/09/02 04:33:40;;;;;;;4.63;4.23;;;16.70;99.90;;;17.70;66.53;100630.13;5010812;28;20629;-69
2022/09/02 04:36:11;;;;;;;4.50;4.10;;;16.70;99.90;;;17.71;65.92;100628.31;5011331;28;20660;-69
2022/09/02 04:38:40;;;;;;;4.70;3.90;;;16.70;99.90;;;17.74;65.81;100634.09;5009539;28;21236;-68
2022/09/02 04:41:15;;;;;;;8.77;5.00;;;16.70;99.90;;;17.71;65.87;100634.41;5026449;28;21203;-69
2022/09/02 04:43:43;;;;;;;5.03;4.57;;;16.70;99.90;;;17.83;65.18;100637.59;5026225;28;20634;-68
2022/09/02 04:46:13;;;;;;;4.23;3.73;;;16.80;99.90;;;17.75;65.15;100633.13;5010029;28;20704;-69
2022/09/02 04:48:42;;;;;;;5.60;4.97;;;16.80;99.90;;;17.65;65.19;100634.22;5009559;28;21196;-68
2022/09/02 04:51:15;;;;;;;7.03;5.10;;;16.70;99.90;;;17.79;65.40;100634.47;5014076;28;20618;-69
2022/09/02 04:53:45;;;;;;;10.00;5.23;;;16.70;99.90;;;17.78;64.64;100637.25;5010040;28;20720;-69
2022/09/02 04:56:17;;;;;;;4.53;4.13;;;16.70;99.90;;;17.84;64.32;100639.28;5010041;28;21176;-69
2022/09/02 04:58:44;;;;;;;5.27;4.77;;;16.70;99.90;;;17.82;64.76;100635.97;5010041;28;20672;-69
2022/09/02 05:01:15;;;;;;;7.80;4.47;;;16.80;99.90;;;17.89;64.00;100636.97;5010162;28;20732;-69
2022/09/02 05:03:44;;;;;;;4.93;4.50;;;16.80;99.90;;;18.00;63.62;100633.22;5010725;28;20625;-69
2022/09/02 05:06:16;;;;;;;5.33;4.73;;;16.90;99.90;;;18.25;62.92;100637.66;5007385;28;20644;-67
2022/09/02 05:08:46;;;;;;;4.27;3.90;;;17.00;99.90;;;18.28;62.13;100635.53;5011375;28;20628;-67
2022/09/02 05:11:27;;;;;;;4.93;4.20;;;17.10;99.90;;;18.39;61.32;100637.88;5008995;28;20614;-69
2022/09/02 05:13:57;;;;;;;3.67;3.40;;;17.20;99.90;;;18.30;61.77;100638.81;5010497;28;20616;-70
2022/09/02 05:16:32;;;;;;;5.43;3.97;;;17.20;99.90;;;18.39;61.04;100637.03;5009632;28;20717;-69
2022/09/02 05:18:59;;;;;;;4.33;3.60;;;17.20;99.90;;;18.45;61.40;100645.19;5010520;28;20768;-68
2022/09/02 05:21:26;;;;;;;4.23;3.83;;;17.30;99.90;;;18.76;60.45;100641.97;5010101;28;20639;-69
2022/09/02 05:23:54;;;;;;;4.80;4.40;;;17.50;99.90;;;18.85;60.33;100641.81;5008531;28;21217;-69
2022/09/02 05:26:21;;;;;;;3.70;3.50;;;17.60;99.90;;;19.06;59.31;100644.00;5008285;28;20665;-67
2022/09/02 05:28:49;;;;;;;6.67;4.47;;;17.80;99.90;;;19.20;58.33;100641.50;5011078;28;20644;-69
2022/09/02 05:31:18;;;;;;;4.40;4.10;;;17.90;99.90;;;19.42;57.72;100644.50;5010713;28;20705;-70
2022/09/02 05:33:46;;;;;;;7.83;4.47;;;18.00;99.90;;;20.06;56.26;100645.19;5010161;28;20720;-70
2022/09/02 05:36:17;;;;;;;5.73;4.20;;;18.40;99.90;;;20.73;54.03;100643.75;5009621;28;20614;-69
2022/09/02 05:38:45;;;;;;;4.30;3.90;;;18.90;99.90;;;21.18;52.41;100644.78;5008332;28;21033;-69
2022/09/02 05:41:16;;;;;;;5.23;4.60;;;19.20;99.90;;;21.44;52.11;100640.75;5011050;28;20628;-69
2022/09/02 05:43:43;;;;;;;3.60;3.30;;;19.60;99.90;;;22.31;50.26;100644.47;5010826;28;21205;-69
2022/09/02 05:46:16;;;;;;;4.40;4.00;;;20.10;99.60;;;22.90;48.67;100653.16;5008992;28;20985;-67
2022/09/02 05:51:52;;;;;;;8.90;4.33;;;21.20;97.90;;;24.23;45.22;100645.00;5008893;28;21185;-69
2022/09/02 05:54:24;;;;;;;6.20;4.67;;;21.70;96.80;;;25.08;43.90;100644.44;5010464;28;20633;-68
2022/09/02 05:56:57;;;;;;;5.20;4.80;;;22.30;95.90;;;25.44;42.98;100650.25;4994203;28;20646;-69
2022/09/02 05:59:27;;;;;;;6.03;4.83;;;22.60;95.00;;;26.35;41.12;100653.78;5008999;28;20645;-69
2022/09/02 06:01:55;;;;;;;4.53;4.20;;;23.20;94.20;;;26.71;40.21;100659.34;5008909;28;20660;-69
2022/09/02 06:04:22;;;;;;;6.20;4.70;;;23.60;93.20;;;27.49;39.06;100655.38;4992295;28;20629;-69
2022/09/02 06:06:50;;;;;;;4.87;4.40;;;24.10;92.50;;;27.90;38.00;100644.06;5009908;28;20649;-70
2022/09/02 06:09:21;;;;;;;5.07;4.60;;;24.60;91.50;;;27.58;38.46;100649.50;5010308;28;20645;-69
2022/09/02 06:11:50;;;;;;;6.77;5.00;;;25.00;90.40;;;28.37;37.27;100651.34;5009745;28;20709;-68
2022/09/02 06:14:21;;;;;;;7.00;5.00;;;25.40;89.50;;;28.91;36.76;100661.19;5009065;28;20597;-68
2022/09/02 06:16:49;;;;;;;5.00;4.53;;;25.80;87.90;;;29.36;35.49;100643.56;5007946;28;20705;-69
2022/09/02 06:19:17;;;;;;;5.97;5.37;;;26.20;85.80;;;29.57;34.78;100647.53;5009266;28;20764;-68
2022/09/02 06:21:48;;;;;;;5.20;4.80;;;26.50;83.50;;;30.48;34.15;100656.56;5008384;28;20630;-69
2022/09/02 06:24:15;;;;;;;5.47;4.93;;;27.00;81.90;;;31.40;31.98;100651.78;5024898;28;20617;-69
2022/09/02 06:26:42;;;;;;;5.33;4.83;;;27.60;79.70;;;32.09;31.58;100643.09;5007562;28;21024;-69
2022/09/02 06:29:10;;;;;;;5.47;4.93;;;28.20;77.60;;;32.72;30.28;100649.78;5010136;28;20645;-68
2022/09/02 06:31:41;;;;;;;5.87;5.37;;;28.70;75.30;;;33.38;29.46;100648.50;5009480;28;20713;-69
2022/09/02 06:34:11;;;;;;;7.27;4.80;;;29.30;73.30;;;34.09;28.82;100650.63;5009094;28;20618;-69
2022/09/02 06:36:38;;;;;;;5.37;4.83;;;29.90;71.30;;;34.38;28.24;100649.13;5019669;28;20748;-69
2022/09/02 06:39:05;;;;;;;5.13;4.70;;;30.40;68.90;;;34.74;27.60;100647.31;5004950;28;20675;-69
2022/09/02 06:41:33;;;;;;;7.33;4.73;;;30.80;67.10;;;35.80;26.46;100645.41;5006585;28;20622;-68
2022/09/02 06:44:03;;;;;;;5.27;4.40;;;31.50;65.70;;;36.24;25.52;100647.47;5013732;28;20984;-69
2022/09/02 06:46:37;;;;;;;6.13;4.73;;;32.00;63.10;;;37.12;24.69;100651.03;5012418;28;20984;-69
2022/09/02 06:49:07;;;;;;;6.60;4.87;;;32.50;62.00;;;37.25;24.75;100642.19;4995205;28;20654;-69
2022/09/02 06:51:46;;;;;;;4.93;4.63;;;32.70;60.50;;;36.89;25.28;100646.31;4994099;28;20622;-69
2022/09/02 06:54:17;;;;;;;4.67;4.37;;;32.70;60.10;;;37.19;24.49;100640.63;5011399;28;21220;-69
2022/09/02 06:56:47;;;;;;;3.90;3.70;;;33.00;59.50;;;38.06;23.93;100647.66;5003230;28;20626;-69
2022/09/02 06:59:18;;;;;;;4.97;4.53;;;33.40;58.60;;;38.96;22.73;100651.06;5018744;28;20674;-69
2022/09/02 07:01:46;;;;;;;4.50;4.20;;;34.00;57.70;;;39.51;22.60;100647.38;5014070;28;20649;-67
2022/09/02 07:06:59;;;;;;;4.83;4.43;;;34.90;56.10;;;40.27;21.83;100651.41;5000616;28;20659;-68
2022/09/02 07:09:29;;;;;;;4.50;4.20;;;35.40;55.20;;;40.78;21.37;100646.41;5011090;28;20636;-69
2022/09/02 07:12:02;;;;;;;4.90;4.50;;;35.70;54.80;;;41.16;21.02;100640.56;5012806;28;20657;-69
2022/09/02 07:14:40;;;;;;;5.57;4.37;;;36.10;53.70;;;41.49;20.87;100644.63;5006564;28;20634;-70
2022/09/02 07:17:11;;;;;;;3.90;3.70;;;36.50;52.70;;;41.25;20.63;100639.53;5012523;28;20976;-67
2022/09/02 07:19:38;;;;;;;3.17;3.07;;;36.60;51.30;;;41.21;20.21;100637.72;4995293;28;20693;-67
2022/09/02 07:22:05;;;;;;;5.20;3.80;;;36.90;50.40;;;41.12;20.56;100639.59;5010729;28;20660;-68
2022/09/02 07:24:32;;;;;;;3.93;3.47;;;37.00;49.70;;;41.09;19.83;100641.00;5009436;28;21185;-68
2022/09/02 07:27:00;;;;;;;3.97;3.70;;;37.00;49.00;;;40.94;20.58;100636.72;5012735;28;20622;-68
2022/09/02 07:29:27;;;;;;;3.60;3.40;;;37.00;49.30;;;40.68;20.58;100635.69;5012002;28;20733;-67
2022/09/02 07:31:53;;;;;;;3.60;3.40;;;36.80;49.20;;;40.12;21.22;100624.38;5028590;28;20613;-68
2022/09/02 07:34:20;;;;;;;4.00;3.70;;;36.60;49.00;;;39.59;21.71;100635.00;5011862;28;20617;-69
2022/09/02 07:36:47;;;;;;;3.33;3.13;;;36.20;48.90;;;39.12;21.31;100624.38;5011895;28;20641;-69
2022/09/02 07:39:16;;;;;;;2.80;2.70;;;35.80;49.00;;;38.16;21.75;100616.75;5021234;28;20674;-69
2022/09/02 07:41:48;;;;;;;2.10;2.00;;;35.10;48.10;;;37.58;21.39;100619.59;5010749;28;20640;-69
2022/09/02 07:44:17;;;;;;;2.47;2.37;;;34.60;48.20;;;36.55;22.70;100606.28;5011303;28;20653;-69
2022/09/02 07:46:44;;;;;;;3.57;2.83;;;33.70;48.30;;;36.31;22.96;100613.44;5011735;28;20634;-68
2022/09/02 07:49:14;;;;;;;2.23;2.13;;;33.50;48.60;;;36.34;23.45;100609.38;5011471;28;20656;-69
2022/09/02 07:51:48;;;;;;;2.47;2.33;;;33.20;49.20;;;35.55;24.45;100610.19;5010341;28;20637;-69
2022/09/02 07:54:20;;;;;;;2.70;2.60;;;32.60;50.50;;;35.95;24.56;100612.00;5023732;28;21001;-69
2022/09/02 07:56:48;;;;;;;2.90;2.73;;;32.70;50.90;;;36.27;23.95;100612.41;5010799;28;20660;-68
2022/09/02 07:59:16;;;;;;;2.97;2.77;;;33.00;50.30;;;37.41;23.11;100612.97;5011674;28;20680;-69
2022/09/02 08:01:44;;;;;;;2.43;2.33;;;33.60;49.80;;;38.25;22.06;100615.03;5010872;28;20633;-68
2022/09/02 08:04:12;;;;;;;3.30;2.30;;;34.20;49.20;;;38.23;21.37;100617.22;5012533;28;20621;-68
2022/09/02 08:06:40;;;;;;;2.57;2.40;;;34.30;47.80;;;37.46;21.76;100612.94;5011263;28;20685;-68
2022/09/02 08:09:11;;;;;;;2.43;2.33;;;33.90;47.50;;;37.13;21.59;100618.09;5012665;28;20645;-68
2022/09/02 08:11:41;;;;;;;1.90;1.90;;;33.40;47.00;;;36.70;21.89;100609.97;5009693;28;20638;-68
2022/09/02 08:14:13;;;;;;;2.20;2.10;;;33.00;47.40;;;36.84;20.92;100616.41;5007891;28;21261;-68
2022/09/02 08:16:44;;;;;;;4.10;1.80;;;33.00;47.00;;;37.46;20.63;100612.94;5010517;28;20633;-68
2022/09/02 08:19:13;;;;;;;2.63;2.53;;;33.20;46.60;;;36.73;21.36;100610.25;4990979;28;20670;-69
2022/09/02 08:21:39;;;;;;;2.90;2.80;;;32.80;46.80;;;36.68;21.11;100620.31;5000354;28;20713;-68
2022/09/02 08:24:06;;;;;;;1.93;1.73;;;32.70;46.80;;;37.46;20.13;100615.66;5006184;28;20621;-70
2022/09/02 08:26:35;;;;;;;2.03;1.93;;;33.00;46.90;;;38.30;19.26;100617.66;4995890;28;20644;-70
2022/09/02 08:29:07;;;;;;;2.30;2.20;;;33.50;45.90;;;36.96;21.03;100608.72;5012413;28;20799;-69
2022/09/02 08:31:37;;;;;;;1.70;1.53;;;33.20;46.30;;;36.76;21.19;100617.81;5010961;28;20681;-69
2022/09/02 08:34:04;;;;;;;2.63;2.43;;;33.00;46.50;;;38.00;20.33;100611.50;5006605;28;20669;-68
2022/09/02 08:36:32;;;;;;;1.70;1.70;;;33.30;46.50;;;39.08;19.46;100607.72;4990875;28;20667;-68
2022/09/02 08:39:03;;;;;;;2.17;2.07;;;33.70;46.10;;;39.76;18.35;100618.00;4999377;28;20689;-69
2022/09/02 08:42:15;;;;;;;2.50;2.13;;;34.60;45.10;;;40.76;17.66;100610.31;5026947;28;21203;-68
2022/09/02 08:44:42;;;;;;;2.10;2.00;;;34.90;44.60;;;41.13;17.42;100608.34;5006105;28;20670;-67
2022/09/02 08:47:18;;;;;;;2.20;2.10;;;35.70;44.00;;;41.06;17.50;100608.81;5009599;28;20644;-69
2022/09/02 08:49:50;;;;;;;2.17;2.07;;;35.50;44.40;;;41.63;17.38;100610.56;5010495;28;20641;-70
2022/09/02 08:52:49;;;;;;;2.10;2.00;;;36.10;43.80;;;41.48;16.70;100616.47;5009358;28;21024;-69
2022/09/02 08:55:27;;;;;;;1.97;1.90;;;36.30;43.10;;;43.61;15.76;100612.19;5005676;28;20676;-69
2022/09/02 08:57:55;;;;;;;1.83;1.77;;;36.80;42.90;;;41.68;16.75;100607.69;5010352;28;20641;-69
2022/09/02 09:00:22;;;;;;;1.57;1.57;;;36.60;42.60;;;43.68;15.34;100612.50;5008168;28;21004;-66
2022/09/02 09:03:28;;;;;;;6.10;5.50;;;37.10;42.70;;;46.48;13.47;100613.00;5006824;28;20725;-66
2022/09/02 09:06:27;;;;;;;4.63;4.33;;;38.70;41.30;;;45.88;13.61;100602.84;5025086;28;20633;-67
2022/09/02 09:09:20;;;;;;;2.00;2.00;;;39.00;40.60;;;43.10;15.31;100606.88;5002221;28;20633;-68
2022/09/02 09:12:17;;;;;;;2.60;2.50;;;38.00;41.10;;;47.04;12.91;100595.28;5000282;28;20721;-68
2022/09/02 09:15:12;;;;;;;1.97;1.97;;;39.10;41.30;;;47.87;12.00;100597.78;5006196;28;20648;-66
2022/09/02 09:17:48;;;;;;;2.60;2.40;;;40.30;39.70;;;47.88;11.87;100604.13;4994482;28;20617;-67
2022/09/02 09:20:23;;;;;;;6.63;1.77;;;41.20;38.60;;;45.81;13.28;100586.09;5025351;28;20671;-67
2022/09/02 09:22:55;;;;;;;1.90;1.77;;;39.90;38.70;;;47.21;12.20;100594.13;4998091;28;21202;-68
2022/09/02 09:25:28;;;;;;;1.70;1.60;;;40.30;38.70;;;45.98;13.16;100589.41;5025913;28;20621;-67
2022/09/02 09:27:57;;;;;;;2.10;2.10;;;40.30;38.20;;;47.08;12.62;100589.84;5008649;28;20673;-69
2022/09/02 09:30:24;;;;;;;1.90;1.80;;;40.10;38.70;;;49.54;10.67;100597.16;5009963;28;20693;-68
2022/09/02 09:32:56;;;;;;;1.90;1.90;;;41.60;37.90;;;51.16;10.76;100593.63;5010058;28;21265;-68
2022/09/02 09:35:25;;;;;;;1.87;1.87;;;42.90;37.40;;;50.43;10.17;100594.44;5009231;28;20732;-68
2022/09/02 09:37:54;;;;;;;1.80;1.80;;;42.60;36.60;;;50.87;10.45;100587.03;5010437;28;20618;-68
2022/09/02 09:40:32;;;;;;;1.87;1.83;;;43.00;36.40;;;48.85;11.10;100578.91;5008201;28;20649;-68
2022/09/02 09:43:05;;;;;;;2.07;1.97;;;42.80;35.90;;;47.69;11.63;100574.41;5008788;28;20622;-68
2022/09/02 09:45:50;;;;;;;1.93;1.83;;;41.40;36.60;;;48.84;11.24;100569.78;5006777;28;20725;-69
2022/09/02 09:48:29;;;;;;;1.63;1.63;;;41.70;36.80;;;48.60;11.28;100566.53;5006307;28;21077;-67
2022/09/02 09:50:56;;;;;;;1.70;1.70;;;42.10;36.20;;;49.30;10.62;100562.28;4999681;28;20701;-68
2022/09/02 09:53:32;;;;;;;1.70;1.60;;;42.60;35.90;;;47.59;12.13;100566.66;5010348;28;20618;-68
2022/09/02 09:56:07;;;;;;;1.60;1.60;;;42.20;35.90;;;49.36;10.66;100555.25;5009275;28;20661;-68
2022/09/02 09:58:40;;;;;;;2.40;1.57;;;42.50;35.80;;;47.69;11.24;100563.34;5008301;28;21260;-68
2022/09/02 10:01:30;;;;;;;1.43;1.43;;;41.90;35.40;;;48.11;11.21;100546.94;5010646;28;20740;-68
2022/09/02 10:04:10;;;;;;;1.87;1.77;;;41.80;35.50;;;47.68;11.51;100550.69;5000368;28;20728;-68
2022/09/02 10:06:57;;;;;;;1.60;1.60;;;42.20;35.10;;;44.38;13.02;100540.25;5007552;28;20633;-69
2022/09/02 10:09:33;;;;;;;1.30;1.30;;;39.80;35.90;;;40.77;15.28;100537.28;5006716;28;20665;-69
2022/09/02 10:12:12;;;;;;;1.43;1.43;;;38.20;36.40;;;40.57;15.58;100535.84;5019933;28;20616;-69
2022/09/02 10:14:47;;;;;;;1.60;1.60;;;36.80;37.40;;;41.45;15.30;100529.44;5011439;28;20622;-69
2022/09/02 10:17:35;;;;;;;1.60;1.60;;;36.60;37.90;;;43.59;13.49;100532.03;5010542;28;20617;-69
2022/09/02 10:20:32;;;;;;;1.40;1.40;;;37.30;37.40;;;42.39;13.85;100532.34;4997725;28;21308;-69
2022/09/02 10:23:14;;;;;;;2.00;1.90;;;37.20;37.40;;;42.68;14.23;100530.91;5004634;28;20637;-66
2022/09/02 10:26:06;;;;;;;3.93;3.63;;;36.90;37.60;;;41.45;14.79;100531.38;5011054;28;20618;-66
2022/09/02 10:29:07;;;;;;;3.17;1.70;;;37.10;37.50;;;37.89;17.11;100514.66;5026277;28;20629;-67
2022/09/02 10:32:22;;;;;;;1.60;1.47;;;35.20;38.90;;;37.42;18.08;100511.97;5012401;28;20621;-68
2022/09/02 10:35:11;;;;;;;4.20;1.87;;;34.50;39.60;;;32.62;22.54;100506.53;4977210;28;20629;-67
2022/09/02 10:38:11;;;;;;;1.43;1.43;;;32.30;40.60;;;31.63;23.41;100505.13;5009891;28;21080;-67
2022/09/02 10:40:53;;;;;;;1.07;1.07;;;30.70;41.90;;;29.98;25.78;100501.34;5011144;28;21094;-66
2022/09/02 10:43:46;;;;;;;1.30;1.30;;;29.30;43.70;;;29.49;26.41;100497.34;5010393;28;20622;-68